Time;durP1;ratioP1;P1;durP2;ratioP2;P2;SDS_P1;SDS_P2;PMS_P1;PMS_P2;Temp;Humidity;BMP_temperature;BMP_pressure;BME280_temperature;BME280_humidity;BME280_pressure;Samples;Min_cycle;Max_cycle;Signal;HPM_P1;HPM_P2
2023/10/18 00:00:28;;;;;;;;;;;;;;;13.19;75.42;100076.13;6213467;23;19908;-82
2023/10/18 00:02:54;;;;;;;;;;;;;;;13.21;75.60;100066.38;6212857;23;19977;-82
2023/10/18 00:05:21;;;;;;;;;;;;;;;13.20;75.92;100067.28;6212579;23;19982;-82
2023/10/18 00:07:46;;;;;;;;;;;;;;;13.23;75.65;100070.72;6212360;23;20351;-82
2023/10/18 00:10:12;;;;;;;;;;;;;;;13.03;75.69;100067.59;6213027;23;19912;-82
2023/10/18 00:12:39;;;;;;;;;;;;;;;13.04;75.50;100069.38;6212513;23;20336;-81
2023/10/18 00:15:05;;;;;;;;;;;;;;;12.92;76.12;100074.88;6213175;23;20004;-81
2023/10/18 00:17:31;;;;;;;;;;;;;;;12.94;76.25;100073.94;6213064;23;19930;-81
2023/10/18 00:19:57;;;;;;;;;;;;;;;12.83;77.35;100073.28;6212511;23;20323;-81
2023/10/18 00:22:22;;;;;;;;;;;;;;;12.68;77.12;100072.66;6213059;23;19919;-81
2023/10/18 00:24:47;;;;;;;;;;;;;;;12.50;78.08;100065.91;6186144;23;20339;-82
2023/10/18 00:27:13;;;;;;;;;;;;;;;12.54;78.40;100067.59;6212822;23;20279;-82
2023/10/18 00:29:38;;;;;;;;;;;;;;;12.65;77.99;100056.84;6212922;23;20374;-82
2023/10/18 00:32:04;;;;;;;;;;;;;;;12.81;77.42;100061.84;6212845;23;20002;-83
2023/10/18 00:34:30;;;;;;;;;;;;;;;12.89;77.07;100054.63;6212946;23;19907;-83
2023/10/18 00:36:56;;;;;;;;;;;;;;;12.95;77.55;100049.22;6212817;23;19961;-82
2023/10/18 00:39:32;;;;;;;;;;;;;;;12.83;77.53;100044.16;6212517;23;19957;-83
2023/10/18 00:45:01;;;;;;;;;;;;;;;13.02;77.88;100032.31;6120487;23;19916;-82
2023/10/18 00:47:27;;;;;;;;;;;;;;;13.04;77.70;100038.44;6120412;23;19947;-82
2023/10/18 00:49:52;;;;;;;;;;;;;;;13.11;77.18;100041.84;6120560;23;19916;-82
2023/10/18 00:52:23;;;;;;;;;;;;;;;13.16;77.60;100041.75;6120646;23;19935;-82
2023/10/18 00:54:48;;;;;;;;;;;;;;;13.15;77.67;100040.03;6120506;23;19959;-82
2023/10/18 00:57:19;;;;;;;;;;;;;;;13.19;77.10;100036.38;6121008;23;19912;-82
2023/10/18 00:59:45;;;;;;;;;;;;;;;13.11;77.54;100028.59;6120105;23;19921;-82
2023/10/18 01:02:11;;;;;;;;;;;;;;;13.06;77.89;100031.34;6120694;23;19931;-81
2023/10/18 01:04:37;;;;;;;;;;;;;;;13.06;77.82;100023.38;6118688;23;19988;-81
2023/10/18 01:07:13;;;;;;;;;;;;;;;13.14;77.76;100028.53;6118847;23;19987;-82
2023/10/18 01:09:45;;;;;;;;;;;;;;;13.10;77.87;100025.97;6117281;23;19909;-82
2023/10/18 01:12:10;;;;;;;;;;;;;;;13.12;77.59;100029.47;6118349;23;19909;-81
2023/10/18 01:14:36;;;;;;;;;;;;;;;13.10;77.85;100025.97;6120340;23;20434;-85
2023/10/18 01:17:05;;;;;;;;;;;;;;;13.06;77.44;100022.53;6121178;23;19908;-81
2023/10/18 01:19:30;;;;;;;;;;;;;;;13.04;77.89;100025.19;6120454;23;19932;-81
2023/10/18 01:21:56;;;;;;;;;;;;;;;13.06;77.88;100026.03;6187073;23;19930;-82
2023/10/18 01:24:21;;;;;;;;;;;;;;;13.11;77.83;100030.38;6212209;23;20324;-82
2023/10/18 01:26:47;;;;;;;;;;;;;;;13.11;78.06;100025.94;6212436;23;19911;-82
2023/10/18 01:29:13;;;;;;;;;;;;;;;13.19;78.12;100023.13;6213006;23;20319;-82
2023/10/18 01:31:45;;;;;;;;;;;;;;;13.13;77.98;100023.25;6212105;23;20255;-83
2023/10/18 01:34:10;;;;;;;;;;;;;;;13.02;77.77;100021.72;6212564;23;19912;-82
2023/10/18 01:36:39;;;;;;;;;;;;;;;13.05;77.89;100020.78;6212211;23;19915;-82
2023/10/18 01:39:08;;;;;;;;;;;;;;;13.07;77.75;100029.56;6214720;23;19919;-82
2023/10/18 01:41:38;;;;;;;;;;;;;;;12.94;77.65;100022.75;6214723;23;19966;-82
2023/10/18 01:44:07;;;;;;;;;;;;;;;12.83;78.18;100028.28;6214845;23;19908;-82
2023/10/18 01:46:36;;;;;;;;;;;;;;;12.93;78.21;100016.59;6213892;23;20259;-82
2023/10/18 01:49:03;;;;;;;;;;;;;;;13.03;78.13;100025.22;6213846;23;19911;-81
2023/10/18 01:51:28;;;;;;;;;;;;;;;13.00;77.56;100020.84;6214123;23;19914;-81
2023/10/18 01:54:02;;;;;;;;;;;;;;;12.80;77.68;100025.69;6214553;23;19912;-81
2023/10/18 01:56:28;;;;;;;;;;;;;;;12.86;77.68;100030.84;6213883;23;19911;-81
2023/10/18 01:58:54;;;;;;;;;;;;;;;12.91;77.38;100026.34;6214523;23;19931;-81
2023/10/18 02:01:19;;;;;;;;;;;;;;;12.81;77.60;100030.94;6214120;23;20291;-81
2023/10/18 02:03:44;;;;;;;;;;;;;;;12.70;78.32;100040.88;6214666;23;19911;-81
2023/10/18 02:06:15;;;;;;;;;;;;;;;12.82;78.28;100035.34;6214559;23;19954;-81
2023/10/18 02:08:41;;;;;;;;;;;;;;;12.80;77.94;100031.84;6211797;23;19907;-81
2023/10/18 02:11:08;;;;;;;;;;;;;;;12.81;78.31;100035.38;6214562;23;20390;-80
2023/10/18 02:13:34;;;;;;;;;;;;;;;12.84;78.42;100027.38;6187299;23;20327;-81
2023/10/18 02:15:59;;;;;;;;;;;;;;;12.80;77.71;100028.31;6213855;23;19907;-80
2023/10/18 02:18:27;;;;;;;;;;;;;;;12.83;78.01;100022.97;6213798;23;19907;-82
2023/10/18 02:20:52;;;;;;;;;;;;;;;12.83;78.28;100021.19;6213893;23;20332;-81
2023/10/18 02:23:19;;;;;;;;;;;;;;;12.81;78.43;100023.00;6213770;23;19908;-81
2023/10/18 02:25:45;;;;;;;;;;;;;;;12.87;77.66;100019.38;6214176;23;19984;-81
2023/10/18 02:28:24;;;;;;;;;;;;;;;12.81;77.82;100028.28;6186744;23;19908;-81
2023/10/18 02:30:57;;;;;;;;;;;;;;;12.75;78.41;100027.53;6214075;23;20255;-81
2023/10/18 02:33:26;;;;;;;;;;;;;;;12.76;78.17;100030.16;6213641;23;19912;-81
2023/10/18 02:35:52;;;;;;;;;;;;;;;12.80;78.36;100028.31;6213688;23;20241;-81
2023/10/18 02:38:20;;;;;;;;;;;;;;;12.78;78.82;100025.72;6212999;23;19922;-81
2023/10/18 02:40:45;;;;;;;;;;;;;;;12.78;78.67;100020.41;6212166;23;19994;-82
2023/10/18 02:43:14;;;;;;;;;;;;;;;12.88;78.99;100026.41;6213709;23;19939;-82
2023/10/18 02:45:42;;;;;;;;;;;;;;;12.78;78.78;100030.13;6186759;23;19908;-84
2023/10/18 02:48:13;;;;;;;;;;;;;;;12.75;78.93;100035.50;6213957;23;19939;-81
2023/10/18 02:50:39;;;;;;;;;;;;;;;12.84;78.89;100035.31;6213813;23;20247;-81
2023/10/18 02:53:06;;;;;;;;;;;;;;;12.85;78.91;100023.81;6213490;23;19908;-81
2023/10/18 02:55:32;;;;;;;;;;;;;;;12.85;78.53;100037.94;6213497;23;19931;-81
2023/10/18 02:57:58;;;;;;;;;;;;;;;12.88;78.96;100032.59;6213789;23;19990;-80
2023/10/18 03:00:25;;;;;;;;;;;;;;;12.92;79.32;100030.75;6213443;23;19935;-80
2023/10/18 03:02:50;;;;;;;;;;;;;;;12.74;79.70;100031.09;6213653;23;20011;-81
2023/10/18 03:05:19;;;;;;;;;;;;;;;12.84;79.40;100037.97;6213365;23;19908;-81
2023/10/18 03:07:45;;;;;;;;;;;;;;;12.81;80.05;100024.78;6213590;23;19911;-80
2023/10/18 03:10:32;;;;;;;;;;;;;;;12.86;79.98;100033.50;6213539;23;19958;-80
2023/10/18 03:12:58;;;;;;;;;;;;;;;12.72;80.06;100029.31;6213715;23;20327;-80
2023/10/18 03:15:24;;;;;;;;;;;;;;;12.77;80.06;100021.31;6213448;23;19915;-81
2023/10/18 03:17:50;;;;;;;;;;;;;;;12.77;80.61;100028.38;6213421;23;19907;-81
2023/10/18 03:20:24;;;;;;;;;;;;;;;12.91;80.22;100031.63;6211068;23;20389;-82
2023/10/18 03:22:50;;;;;;;;;;;;;;;12.83;80.30;100029.13;6211892;23;19908;-81
2023/10/18 03:25:26;;;;;;;;;;;;;;;12.88;80.35;100027.28;6211863;23;19912;-82
2023/10/18 03:27:57;;;;;;;;;;;;;;;12.85;80.74;100027.34;6200422;23;19907;-82
2023/10/18 03:30:23;;;;;;;;;;;;;;;12.92;80.26;100029.88;6212450;23;19911;-82
2023/10/18 03:32:51;;;;;;;;;;;;;;;13.02;80.32;100029.66;6212147;23;19907;-80
2023/10/18 03:35:22;;;;;;;;;;;;;;;12.84;80.39;100024.72;6211702;23;19915;-80
2023/10/18 03:37:48;;;;;;;;;;;;;;;12.87;80.53;100030.81;6212582;23;20319;-80
2023/10/18 03:40:23;;;;;;;;;;;;;;;12.74;81.19;100031.94;6211719;23;19939;-80
2023/10/18 03:42:51;;;;;;;;;;;;;;;12.81;80.79;100032.72;6212502;23;19950;-80
2023/10/18 03:45:22;;;;;;;;;;;;;;;12.66;81.31;100031.22;6211115;23;19982;-82
2023/10/18 03:47:59;;;;;;;;;;;;;;;12.74;81.35;100023.16;6212032;23;19916;-82
2023/10/18 03:50:47;;;;;;;;;;;;;;;12.70;81.67;100031.16;6212409;23;19922;-82
2023/10/18 03:53:13;;;;;;;;;;;;;;;12.88;81.28;100026.41;6211766;23;19987;-80
2023/10/18 03:55:39;;;;;;;;;;;;;;;12.89;80.43;100025.50;6211695;23;19912;-80
2023/10/18 03:58:05;;;;;;;;;;;;;;;12.84;80.59;100028.25;6209567;23;19978;-83
2023/10/18 04:00:37;;;;;;;;;;;;;;;12.87;81.41;100020.25;6212374;23;19907;-81
2023/10/18 04:03:08;;;;;;;;;;;;;;;12.95;81.07;100022.75;6212518;23;19950;-81
2023/10/18 04:05:45;;;;;;;;;;;;;;;13.04;80.92;100022.56;6212218;23;19908;-81
2023/10/18 04:08:15;;;;;;;;;;;;;;;12.84;80.89;100014.13;6212191;23;19973;-81
2023/10/18 04:10:41;;;;;;;;;;;;;;;12.85;80.89;100014.09;6185404;23;19904;-83
2023/10/18 04:13:13;;;;;;;;;;;;;;;12.94;80.87;100017.47;6212518;23;19907;-79
2023/10/18 04:15:41;;;;;;;;;;;;;;;12.84;80.65;100017.66;6212176;23;20374;-80
2023/10/18 04:20:35;;;;;;;;;;;;;;;12.89;80.54;100013.13;6211831;23;19908;-80
2023/10/18 04:23:14;;;;;;;;;;;;;;;12.90;80.43;100014.03;6212313;23;19923;-80
2023/10/18 04:25:40;;;;;;;;;;;;;;;12.84;80.33;100000.91;6211497;23;19912;-79
2023/10/18 04:28:06;;;;;;;;;;;;;;;12.87;80.54;100000.84;6212211;23;20234;-79
2023/10/18 04:30:32;;;;;;;;;;;;;;;12.87;80.79;99993.75;6213168;23;19904;-79
2023/10/18 04:33:07;;;;;;;;;;;;;;;12.90;80.44;100001.66;6212889;23;19994;-79
2023/10/18 04:35:36;;;;;;;;;;;;;;;12.92;80.37;100000.75;6185982;23;19916;-78
2023/10/18 04:38:07;;;;;;;;;;;;;;;12.80;81.65;100005.38;6211466;23;19961;-79
2023/10/18 04:40:34;;;;;;;;;;;;;;;12.85;80.87;100007.91;6212773;23;19908;-78
2023/10/18 04:43:00;;;;;;;;;;;;;;;12.90;81.10;100012.22;6212299;23;19931;-80
2023/10/18 04:45:27;;;;;;;;;;;;;;;12.97;81.14;100012.13;6210464;23;19908;-78
2023/10/18 04:48:03;;;;;;;;;;;;;;;12.93;80.27;100024.56;6212265;23;19950;-78
2023/10/18 04:50:33;;;;;;;;;;;;;;;12.89;80.91;100021.06;6211993;23;19966;-78
2023/10/18 04:52:59;;;;;;;;;;;;;;;12.52;82.25;100005.88;6211304;23;19908;-80
2023/10/18 04:55:25;;;;;;;;;;;;;;;12.69;81.88;100024.09;6209421;23;19965;-78
2023/10/18 04:57:53;;;;;;;;;;;;;;;12.71;82.05;100027.59;6197374;23;20282;-79
2023/10/18 05:00:25;;;;;;;;;;;;;;;12.72;82.41;100039.91;6208561;23;20196;-80
2023/10/18 05:02:52;;;;;;;;;;;;;;;12.79;81.46;100037.16;6209055;23;20229;-78
2023/10/18 05:05:18;;;;;;;;;;;;;;;12.77;82.06;100031.88;6208752;23;20332;-80
2023/10/18 05:07:47;;;;;;;;;;;;;;;12.86;81.96;100034.38;6209167;23;19958;-78
2023/10/18 05:10:17;;;;;;;;;;;;;;;12.80;81.99;100030.97;6206070;23;19983;-78
2023/10/18 05:12:53;;;;;;;;;;;;;;;12.79;82.04;100031.84;6209957;23;19915;-81
2023/10/18 05:15:22;;;;;;;;;;;;;;;12.86;82.84;100023.78;6211522;23;19935;-79
2023/10/18 05:17:50;;;;;;;;;;;;;;;13.10;82.55;100020.69;6207600;23;20231;-79
2023/10/18 05:22:52;;;;;;;;;;;;;;;13.50;81.61;100023.41;6210888;23;19907;-79
2023/10/18 05:27:59;;;;;;;;;;;;;;;13.60;80.16;100030.25;6210894;23;20251;-79
2023/10/18 05:31:03;;;;;;;;;;;;;;;13.60;79.63;100039.97;6211112;23;19919;-80
2023/10/18 05:33:30;;;;;;;;;;;;;;;13.58;79.25;100037.38;6210609;23;19974;-79
2023/10/18 05:36:11;;;;;;;;;;;;;;;13.51;79.83;100038.38;6199623;23;19915;-79
2023/10/18 05:43:51;;;;;;;;;;;;;;;13.71;78.57;100047.69;6212414;23;20346;-80
2023/10/18 05:46:20;;;;;;;;;;;;;;;13.84;77.93;100050.94;6212858;23;19994;-80
2023/10/18 05:48:45;;;;;;;;;;;;;;;13.88;77.85;100042.88;6213050;23;19919;-79
2023/10/18 05:51:26;;;;;;;;;;;;;;;13.84;77.58;100048.28;6213335;23;20247;-79
2023/10/18 05:53:59;;;;;;;;;;;;;;;13.84;78.45;100051.81;6212500;23;19911;-78
2023/10/18 05:56:33;;;;;;;;;;;;;;;13.95;78.25;100048.94;6212870;23;19989;-78
2023/10/18 06:02:13;;;;;;;;;;;;;;;14.33;76.83;100055.06;6049734;23;20021;-79
2023/10/18 06:04:38;;;;;;;;;;;;;;;14.29;76.26;100053.44;6061826;23;19948;-76
2023/10/18 06:07:10;;;;;;;;;;;;;;;14.41;76.50;100052.22;6063135;23;19913;-77
2023/10/18 06:09:46;;;;;;;;;;;;;;;14.39;75.65;100054.06;6062832;23;19909;-78
2023/10/18 06:12:21;;;;;;;;;;;;;;;14.21;75.58;100069.53;6063956;23;20277;-77
2023/10/18 06:14:46;;;;;;;;;;;;;;;13.84;76.76;100078.34;6063407;23;19913;-79
2023/10/18 06:17:19;;;;;;;;;;;;;;;13.65;78.08;100069.91;6063618;23;19910;-77
2023/10/18 06:19:47;;;;;;;;;;;;;;;13.83;77.29;100073.06;6063258;23;20360;-76
2023/10/18 06:22:16;;;;;;;;;;;;;;;13.84;78.05;100077.44;6063264;23;20281;-79
2023/10/18 06:24:48;;;;;;;;;;;;;;;14.04;78.11;100072.59;6062968;23;19910;-77
2023/10/18 06:27:16;;;;;;;;;;;;;;;14.09;77.51;100078.66;6063530;23;19909;-76
2023/10/18 06:29:45;;;;;;;;;;;;;;;14.11;78.06;100070.66;6063119;23;19910;-78
2023/10/18 06:32:14;;;;;;;;;;;;;;;14.02;77.74;100071.72;6062397;23;19995;-77
2023/10/18 06:34:43;;;;;;;;;;;;;;;13.89;78.53;100071.16;6063018;23;20266;-77
2023/10/18 06:37:09;;;;;;;;;;;;;;;13.86;78.77;100080.97;6112237;23;20531;-78
2023/10/18 06:39:35;;;;;;;;;;;;;;;13.78;78.48;100081.13;6211805;23;19951;-77
2023/10/18 06:42:06;;;;;;;;;;;;;;;13.71;79.21;100082.16;6213432;23;19966;-77
2023/10/18 06:44:33;;;;;;;;;;;;;;;13.88;79.57;100076.47;6213482;23;19907;-76
2023/10/18 06:47:01;;;;;;;;;;;;;;;13.87;78.07;100091.53;6213266;23;19907;-77
2023/10/18 06:49:26;;;;;;;;;;;;;;;13.45;79.85;100098.59;6212871;23;20021;-78
2023/10/18 06:51:52;;;;;;;;;;;;;;;13.30;79.99;100098.00;6213485;23;19908;-78
2023/10/18 06:54:39;;;;;;;;;;;;;;;13.55;79.72;100100.19;6212326;23;19927;-78
2023/10/18 07:00:11;;;;;;;;;;;;;;;13.67;78.66;100094.63;6120745;23;20307;-79
2023/10/18 07:02:37;;;;;;;;;;;;;;;13.70;77.44;100091.91;6120239;23;19909;-78
2023/10/18 07:05:04;;;;;;;;;;;;;;;14.04;77.19;100091.16;6120222;23;19940;-79
2023/10/18 07:07:31;;;;;;;;;;;;;;;14.27;76.09;100095.91;6120502;23;19913;-78
2023/10/18 07:09:57;;;;;;;;;;;;;;;14.31;75.93;100097.56;6120738;23;19908;-79
2023/10/18 07:12:44;;;;;;;;;;;;;;;14.44;74.68;100097.28;6121179;23;20039;-78
2023/10/18 07:15:15;;;;;;;;;;;;;;;14.32;75.55;100101.13;6120860;23;19909;-79
2023/10/18 07:17:40;;;;;;;;;;;;;;;14.23;75.36;100096.03;6095324;23;19913;-79
2023/10/18 07:20:15;;;;;;;;;;;;;;;14.31;75.41;100105.53;6120453;23;19915;-78
2023/10/18 07:22:49;;;;;;;;;;;;;;;14.02;75.60;100105.34;6119104;23;19909;-80
2023/10/18 07:25:21;;;;;;;;;;;;;;;13.94;76.62;100108.16;6120773;23;19909;-79
2023/10/18 07:27:47;;;;;;;;;;;;;;;14.25;75.31;100112.78;6119921;23;19948;-80
2023/10/18 07:30:15;;;;;;;;;;;;;;;14.11;74.66;100108.66;6133993;23;19931;-79
2023/10/18 07:32:41;;;;;;;;;;;;;;;13.96;74.96;100112.53;6210485;23;19911;-78
2023/10/18 07:35:11;;;;;;;;;;;;;;;14.01;75.38;100108.91;6210074;23;19957;-78
2023/10/18 07:37:41;;;;;;;;;;;;;;;14.19;74.62;100111.13;6212120;23;19918;-79
2023/10/18 07:40:11;;;;;;;;;;;;;;;14.15;74.74;100105.03;6212021;23;19912;-78
2023/10/18 07:42:43;;;;;;;;;;;;;;;14.17;74.21;100105.00;6212762;23;19914;-79
2023/10/18 07:45:14;;;;;;;;;;;;;;;14.15;74.87;100113.00;6212689;23;20029;-79
2023/10/18 07:47:40;;;;;;;;;;;;;;;14.21;75.66;100106.69;6211169;23;20320;-80
2023/10/18 07:50:34;;;;;;;;;;;;;;;14.43;74.37;100104.38;6208553;23;19962;-80
2023/10/18 07:52:54;;;;;;;;;;;;;;;14.64;74.30;100107.44;6208850;23;19908;-80
2023/10/18 07:55:23;;;;;;;;;;;;;;;14.78;73.79;100112.41;6209526;23;19904;-81
2023/10/18 07:57:49;;;;;;;;;;;;;;;14.84;72.33;100113.13;6208239;23;19923;-81
2023/10/18 08:00:25;;;;;;;;;;;;;;;14.77;72.29;100115.97;6209475;23;19908;-80
2023/10/18 08:02:51;;;;;;;;;;;;;;;14.91;71.34;100111.16;6197033;23;19907;-82
2023/10/18 08:05:19;;;;;;;;;;;;;;;14.97;71.70;100112.81;6209903;23;20316;-80
2023/10/18 08:07:49;;;;;;;;;;;;;;;15.12;70.80;100115.06;6208658;23;19997;-83
2023/10/18 08:10:19;;;;;;;;;;;;;;;15.24;70.71;100111.16;6208446;23;20379;-82
2023/10/18 08:12:44;;;;;;;;;;;;;;;15.22;70.20;100108.56;6209504;23;19919;-80
2023/10/18 08:15:22;;;;;;;;;;;;;;;15.29;68.98;100105.72;6210365;23;19908;-80
2023/10/18 08:17:50;;;;;;;;;;;;;;;15.25;69.23;100109.41;6211012;23;20339;-82
2023/10/18 08:22:49;;;;;;;;;;;;;;;15.37;69.94;100111.72;6211556;23;19915;-78
2023/10/18 08:25:24;;;;;;;;;;;;;;;15.38;68.10;100110.78;6211015;23;19991;-80
2023/10/18 08:27:53;;;;;;;;;;;;;;;15.34;68.33;100103.84;6199166;23;19907;-84
2023/10/18 08:30:24;;;;;;;;;;;;;;;15.51;68.25;100108.69;6211176;23;20332;-81
2023/10/18 08:32:53;;;;;;;;;;;;;;;15.61;68.98;100112.78;6197233;23;20314;-79
2023/10/18 08:35:21;;;;;;;;;;;;;;;15.71;68.40;100111.63;6209794;23;19907;-78
2023/10/18 08:37:47;;;;;;;;;;;;;;;15.82;67.47;100108.66;6210066;23;19947;-83
2023/10/18 08:40:27;;;;;;;;;;;;;;;15.89;66.96;100107.53;6207127;23;19920;-82
2023/10/18 08:42:56;;;;;;;;;;;;;;;16.07;67.47;100110.56;6196531;23;19915;-82
2023/10/18 08:45:23;;;;;;;;;;;;;;;16.15;67.29;100108.53;6208554;23;19907;-80
2023/10/18 08:47:51;;;;;;;;;;;;;;;15.92;66.90;100115.44;6210448;23;20252;-84
2023/10/18 08:50:18;;;;;;;;;;;;;;;15.75;68.00;100102.63;6209787;23;19990;-83
2023/10/18 08:52:47;;;;;;;;;;;;;;;15.92;66.98;100109.25;6210511;23;19939;-83
2023/10/18 08:57:56;;;;;;;;;;;;;;;15.93;66.78;100119.84;6209698;23;19965;-80
2023/10/18 09:02:51;;;;;;;;;;;;;;;16.28;67.31;100120.56;6210438;23;19919;-84
2023/10/18 09:05:22;;;;;;;;;;;;;;;16.46;66.38;100123.53;6210978;23;19908;-83
2023/10/18 09:07:51;;;;;;;;;;;;;;;16.58;64.38;100120.47;6213204;23;20255;-80
2023/10/18 09:18:25;;;;;;;;;;;;;;;16.99;62.43;100117.34;6209615;23;19962;-84
2023/10/18 09:20:53;;;;;;;;;;;;;;;17.24;62.00;100114.72;6209846;23;20364;-81
2023/10/18 09:23:22;;;;;;;;;;;;;;;17.24;60.46;100122.69;6211232;23;19908;-80
2023/10/18 09:25:48;;;;;;;;;;;;;;;17.37;62.08;100107.13;6213183;23;19999;-79
2023/10/18 09:28:29;;;;;;;;;;;;;;;17.39;62.49;100104.41;6210973;23;19974;-86
2023/10/18 09:30:54;;;;;;;;;;;;;;;17.58;61.84;100112.59;6183746;23;19911;-83
2023/10/18 09:33:20;;;;;;;;;;;;;;;17.54;60.34;100109.16;6212812;23;20320;-82
2023/10/18 09:35:49;;;;;;;;;;;;;;;17.45;61.40;100109.50;6213393;23;19908;-81
2023/10/18 09:38:18;;;;;;;;;;;;;;;17.45;62.03;100112.19;6212450;23;19983;-79
2023/10/18 09:40:44;;;;;;;;;;;;;;;17.65;59.86;100109.63;6212319;23;20279;-81
2023/10/18 09:43:09;;;;;;;;;;;;;;;17.92;59.90;100109.56;6212613;23;20350;-80
2023/10/18 09:45:34;;;;;;;;;;;;;;;17.92;59.83;100098.00;6212398;23;19907;-82
2023/10/18 09:48:00;;;;;;;;;;;;;;;18.08;59.51;100099.13;6212607;23;19912;-80
2023/10/18 09:50:31;;;;;;;;;;;;;;;18.00;58.23;100111.94;6212068;23;19907;-82
2023/10/18 09:52:56;;;;;;;;;;;;;;;17.77;60.32;100104.78;6186471;23;19907;-85
2023/10/18 09:55:24;;;;;;;;;;;;;;;17.73;59.50;100104.00;6211818;23;19907;-82
2023/10/18 09:57:59;;;;;;;;;;;;;;;17.95;59.36;100090.75;6210900;23;20393;-82
2023/10/18 10:00:30;;;;;;;;;;;;;;;17.86;59.24;100096.41;6212318;23;19955;-85
2023/10/18 10:02:56;;;;;;;;;;;;;;;17.85;58.04;100094.66;6212530;23;19908;-84
2023/10/18 10:05:26;;;;;;;;;;;;;;;17.95;58.61;100096.09;6212370;23;19915;-81
2023/10/18 10:07:56;;;;;;;;;;;;;;;17.96;57.71;100095.13;6200842;23;20314;-80
2023/10/18 10:10:24;;;;;;;;;;;;;;;17.92;57.68;100082.88;6211593;23;20411;-80
2023/10/18 10:12:57;;;;;;;;;;;;;;;17.93;57.85;100091.72;6212258;23;19946;-80
2023/10/18 10:15:24;;;;;;;;;;;;;;;18.33;56.72;100084.81;6212424;23;19935;-82
2023/10/18 10:17:56;;;;;;;;;;;;;;;18.27;56.72;100085.06;6213014;23;19908;-83
2023/10/18 10:20:23;;;;;;;;;;;;;;;18.45;55.50;100081.63;6212694;23;19908;-81
2023/10/18 10:22:48;;;;;;;;;;;;;;;18.51;55.40;100081.38;6211456;23;19943;-82
2023/10/18 10:25:19;;;;;;;;;;;;;;;18.70;56.24;100081.44;6207749;23;20196;-80
2023/10/18 10:27:58;;;;;;;;;;;;;;;18.71;55.49;100085.88;6208781;23;20454;-81
2023/10/18 10:32:49;;;;;;;;;;;;;;;18.67;55.06;100072.72;6209460;23;19908;-80
2023/10/18 10:35:16;;;;;;;;;;;;;;;18.56;54.91;100070.50;6209502;23;19919;-80
2023/10/18 10:37:51;;;;;;;;;;;;;;;18.61;56.25;100066.72;6209183;23;19912;-81
2023/10/18 10:43:12;;;;;;;;;;;;;;;18.69;55.79;100074.41;6201128;23;19911;-81
2023/10/18 10:45:43;;;;;;;;;;;;;;;18.68;56.72;100067.31;6211800;23;19914;-82
2023/10/18 10:51:21;;;;;;;;;;;;;;;18.75;53.80;100059.88;6212526;23;19908;-81
2023/10/18 10:53:57;;;;;;;;;;;;;;;18.41;55.38;100055.97;6210454;23;19923;-82
2023/10/18 10:56:30;;;;;;;;;;;;;;;18.64;56.35;100055.00;6212918;23;20398;-83
2023/10/18 10:58:55;;;;;;;;;;;;;;;18.65;54.98;100056.75;6212233;23;19974;-81
2023/10/18 11:01:39;;;;;;;;;;;;;;;18.87;54.92;100050.50;6212907;23;20320;-81
2023/10/18 11:04:11;;;;;;;;;;;;;;;19.04;55.90;100045.28;6211982;23;19919;-80
2023/10/18 11:06:42;;;;;;;;;;;;;;;18.83;56.59;100048.88;6212125;23;19912;-80
2023/10/18 11:09:08;;;;;;;;;;;;;;;19.14;56.16;100037.72;6211217;23;19990;-86
2023/10/18 11:11:34;;;;;;;;;;;;;;;19.40;56.01;100032.97;6212158;23;20243;-87
2023/10/18 11:14:01;;;;;;;;;;;;;;;19.44;54.20;100027.41;6212652;23;19969;-83
2023/10/18 11:16:26;;;;;;;;;;;;;;;19.25;53.98;100029.22;6212329;23;20086;-80
2023/10/18 11:18:52;;;;;;;;;;;;;;;18.87;56.55;100032.66;6212753;23;19987;-79
2023/10/18 11:21:39;;;;;;;;;;;;;;;18.65;54.73;100029.16;6213042;23;19915;-79
2023/10/18 11:24:11;;;;;;;;;;;;;;;18.88;55.42;100022.84;6202780;23;19932;-80
2023/10/18 11:26:40;;;;;;;;;;;;;;;19.03;55.87;100013.25;6212970;23;19908;-80
2023/10/18 11:29:06;;;;;;;;;;;;;;;18.71;54.49;100016.41;6212230;23;19987;-80
2023/10/18 11:31:32;;;;;;;;;;;;;;;18.81;54.11;100007.97;6212278;23;19936;-79
2023/10/18 11:34:04;;;;;;;;;;;;;;;18.91;53.59;100004.00;6210736;23;19908;-81
2023/10/18 11:36:32;;;;;;;;;;;;;;;18.75;54.20;100007.31;6211581;23;20026;-81
2023/10/18 11:39:17;;;;;;;;;;;;;;;19.07;54.71;100009.53;6181897;23;19912;-81
2023/10/18 11:41:44;;;;;;;;;;;;;;;19.04;53.56;99997.16;6181227;23;19931;-81
2023/10/18 11:44:13;;;;;;;;;;;;;;;19.27;53.34;100004.13;6181573;23;20927;-82
2023/10/18 11:46:58;;;;;;;;;;;;;;;19.28;53.31;100010.38;6181539;23;19912;-81
2023/10/18 11:49:34;;;;;;;;;;;;;;;19.48;51.36;100002.28;6182308;23;19911;-81
2023/10/18 11:51:59;;;;;;;;;;;;;;;19.55;52.51;100001.97;6175587;23;19994;-84
2023/10/18 11:54:29;;;;;;;;;;;;;;;19.50;53.03;100008.41;6177100;23;20332;-81
2023/10/18 11:56:56;;;;;;;;;;;;;;;19.58;52.19;99994.66;6181612;23;19922;-79
2023/10/18 11:59:22;;;;;;;;;;;;;;;19.58;51.67;99991.13;6150081;23;19926;-80
2023/10/18 12:01:53;;;;;;;;;;;;;;;19.67;51.07;99988.88;6181471;23;19908;-80
2023/10/18 12:04:37;;;;;;;;;;;;;;;19.32;52.88;99980.72;6180564;23;19987;-84
2023/10/18 12:07:03;;;;;;;;;;;;;;;19.36;52.72;99976.09;6155324;23;19916;-79
2023/10/18 12:09:31;;;;;;;;;;;;;;;19.25;52.21;99970.41;6181036;23;19908;-84
2023/10/18 12:11:57;;;;;;;;;;;;;;;19.42;52.94;99969.59;6181828;23;19914;-83
2023/10/18 12:14:22;;;;;;;;;;;;;;;19.14;53.23;99966.41;6181575;23;19994;-82
2023/10/18 12:16:49;;;;;;;;;;;;;;;19.35;51.93;99963.66;6182574;23;19931;-83
2023/10/18 12:19:14;;;;;;;;;;;;;;;19.39;52.03;99951.03;6181186;23;19930;-82
2023/10/18 12:21:54;;;;;;;;;;;;;;;18.78;52.26;99961.75;6181702;23;20319;-85
2023/10/18 12:24:20;;;;;;;;;;;;;;;19.25;51.94;99962.38;6150354;23;20302;-85
2023/10/18 12:26:46;;;;;;;;;;;;;;;19.28;50.89;99964.91;6181304;23;19986;-81
2023/10/18 12:29:16;;;;;;;;;;;;;;;19.25;51.36;99971.25;6181630;23;19932;-82
2023/10/18 12:31:42;;;;;;;;;;;;;;;19.36;50.20;99970.75;6181484;23;19908;-81
2023/10/18 12:34:09;;;;;;;;;;;;;;;19.13;50.85;99970.00;6181330;23;19908;-81
2023/10/18 12:36:38;;;;;;;;;;;;;;;19.22;51.63;99975.88;6182601;23;19952;-84
2023/10/18 12:39:10;;;;;;;;;;;;;;;19.33;50.60;99970.88;6184506;23;19986;-81
2023/10/18 12:41:41;;;;;;;;;;;;;;;19.25;50.45;99960.56;6211633;23;20310;-82
2023/10/18 12:44:17;;;;;;;;;;;;;;;19.47;49.90;99960.41;6211666;23;19908;-84
2023/10/18 12:46:43;;;;;;;;;;;;;;;19.28;50.82;99962.22;6210803;23;19974;-83
2023/10/18 12:49:10;;;;;;;;;;;;;;;19.17;50.68;99962.72;6210920;23;19908;-84
2023/10/18 12:51:42;;;;;;;;;;;;;;;19.24;50.87;99963.31;6211714;23;19912;-82
2023/10/18 12:54:19;;;;;;;;;;;;;;;19.25;51.47;99957.88;6210773;23;19910;-83
2023/10/18 12:56:57;;;;;;;;;;;;;;;19.49;51.65;99960.31;6212027;23;19912;-87
2023/10/18 12:59:22;;;;;;;;;;;;;;;19.63;51.31;99965.00;6184797;23;19934;-84
2023/10/18 13:01:49;;;;;;;;;;;;;;;19.66;52.01;99960.41;6211570;23;19908;-82
2023/10/18 13:04:17;;;;;;;;;;;;;;;19.74;52.14;99962.72;6211597;23;20358;-89
2023/10/18 13:06:43;;;;;;;;;;;;;;;19.96;51.35;99962.53;6211554;23;19934;-86
2023/10/18 13:09:15;;;;;;;;;;;;;;;19.87;51.03;99964.81;6209325;23;19908;-87
2023/10/18 13:14:34;;;;;;;;;;;;;;;19.80;50.53;99961.56;6212451;23;19943;-88
2023/10/18 13:17:03;;;;;;;;;;;;;;;19.23;51.43;99962.44;6211850;23;19908;-86
2023/10/18 13:19:28;;;;;;;;;;;;;;;19.08;52.04;99957.81;6211730;23;19986;-88
2023/10/18 13:21:54;;;;;;;;;;;;;;;19.05;52.93;99958.81;6212453;23;19943;-86
2023/10/18 13:26:46;;;;;;;;;;;;;;;19.36;51.47;99965.41;6208839;23;19912;-83
2023/10/18 13:29:29;;;;;;;;;;;;;;;19.37;50.56;99953.78;6209038;23;19986;-83
2023/10/18 13:31:57;;;;;;;;;;;;;;;19.32;50.94;99955.78;6197504;23;19907;-83
2023/10/18 13:34:23;;;;;;;;;;;;;;;19.05;51.08;99953.47;6210524;23;19912;-82
2023/10/18 13:36:49;;;;;;;;;;;;;;;19.08;51.07;99956.00;6210735;23;20323;-84
2023/10/18 13:39:16;;;;;;;;;;;;;;;19.17;51.33;99951.13;6210897;23;19922;-86